Time;durP1;ratioP1;P1;durP2;ratioP2;P2;SDS_P1;SDS_P2;PMS_P1;PMS_P2;Temp;Humidity;BMP_temperature;BMP_pressure;BME280_temperature;BME280_humidity;BME280_pressure;Samples;Min_cycle;Max_cycle;Signal;HPM_P1;HPM_P2
2023/04/29 00:00:07;;;;;;;7.80;6.15;;;;;;;14.01;83.05;100296.25;4163416;28;20469;-60
2023/04/29 00:02:16;;;;;;;8.68;5.78;;;;;;;14.01;82.82;100288.41;4163992;28;20084;-60
2023/04/29 00:04:19;;;;;;;8.40;4.90;;;;;;;14.02;83.01;100292.75;4164241;28;20403;-59
2023/04/29 00:06:22;;;;;;;9.15;5.70;;;;;;;14.02;83.16;100291.03;4164488;28;20041;-60
2023/04/29 00:08:25;;;;;;;7.82;5.82;;;;;;;14.04;83.29;100293.63;4164213;28;20033;-60
2023/04/29 00:10:28;;;;;;;10.65;5.43;;;;;;;14.02;82.86;100291.03;4163230;28;20044;-60
2023/04/29 00:12:33;;;;;;;9.32;6.32;;;;;;;14.03;82.85;100286.66;4163502;28;20139;-60
2023/04/29 00:14:36;;;;;;;10.80;5.28;;;;;;;14.03;83.36;100291.88;4163360;28;20049;-60
2023/04/29 00:16:39;;;;;;;6.00;4.68;;;;;;;14.02;82.56;100287.50;4164224;28;20049;-60
2023/04/29 00:18:41;;;;;;;7.68;5.70;;;;;;;14.00;82.67;100292.75;4163316;28;20033;-59
2023/04/29 00:20:44;;;;;;;6.82;5.03;;;;;;;13.99;83.19;100285.81;4164330;28;20037;-60
2023/04/29 00:22:48;;;;;;;8.73;5.88;;;;;;;13.96;82.80;100286.69;4162626;28;20472;-59
2023/04/29 00:24:51;;;;;;;7.63;5.70;;;;;;;13.95;82.95;100290.16;4164372;28;20492;-60
2023/04/29 00:26:54;;;;;;;8.57;5.37;;;;;;;13.94;82.68;100293.66;4163017;28;20049;-59
2023/04/29 00:28:59;;;;;;;7.32;6.03;;;;;;;13.94;82.97;100293.66;4158078;28;20044;-59
2023/04/29 00:31:02;;;;;;;8.43;5.03;;;;;;;13.92;82.95;100294.53;4158013;28;20041;-60
2023/04/29 00:33:05;;;;;;;9.45;6.05;;;;;;;13.93;82.96;100294.53;4162225;28;20580;-59
2023/04/29 00:35:08;;;;;;;7.10;4.95;;;;;;;13.93;82.80;100291.91;4146356;28;20053;-60
2023/04/29 00:37:11;;;;;;;7.57;5.57;;;;;;;13.94;82.82;100293.66;4164032;28;20043;-60
2023/04/29 00:39:14;;;;;;;6.97;5.13;;;;;;;13.95;83.08;100294.53;4164065;28;20034;-59
2023/04/29 00:41:17;;;;;;;10.50;5.70;;;;;;;13.96;82.62;100297.13;4162753;28;20499;-59
2023/04/29 00:43:20;;;;;;;7.53;5.22;;;;;;;13.95;82.76;100294.53;4162219;28;20044;-59
2023/04/29 00:45:24;;;;;;;6.55;5.40;;;;;;;13.95;83.22;100298.00;4160366;28;20055;-60
2023/04/29 00:47:27;;;;;;;9.18;6.03;;;;;;;13.95;82.94;100297.13;4161946;28;20041;-59
2023/04/29 00:49:31;;;;;;;6.78;4.85;;;;;;;13.93;82.44;100298.88;4162639;28;20108;-59
2023/04/29 00:51:35;;;;;;;6.97;5.15;;;;;;;13.89;82.52;100303.25;4133682;28;20050;-59
2023/04/29 00:53:38;;;;;;;7.32;5.90;;;;;;;13.85;83.11;100305.88;4177968;28;20135;-60
2023/04/29 00:56:01;;;;;;;8.93;5.10;;;;;;;13.80;82.56;100300.66;4176840;28;20094;-60
2023/04/29 00:58:29;;;;;;;8.45;6.75;;;;;;;13.72;83.38;100295.41;4162757;28;20052;-59
2023/04/29 01:00:33;;;;;;;8.25;5.47;;;;;;;13.74;82.82;100298.03;4162521;28;20100;-60
2023/04/29 01:02:36;;;;;;;7.18;6.20;;;;;;;13.70;82.83;100301.53;4163013;28;20041;-60
2023/04/29 01:04:39;;;;;;;6.38;4.88;;;;;;;13.70;83.54;100298.94;4163652;28;20065;-60
2023/04/29 01:06:58;;;;;;;8.70;5.63;;;;;;;13.71;82.75;100298.03;4162087;28;20120;-60
2023/04/29 01:09:12;;;;;;;14.63;6.95;;;;;;;13.81;81.61;100296.28;4161353;28;20053;-60
2023/04/29 01:11:20;;;;;;;7.87;6.53;;;;;;;13.66;82.31;100297.19;4161967;28;20466;-60
2023/04/29 01:13:30;;;;;;;7.78;5.43;;;;;;;13.55;82.50;100295.47;4161696;28;20030;-60
2023/04/29 01:15:47;;;;;;;9.55;6.05;;;;;;;13.53;82.97;100297.19;4162163;28;20034;-60
2023/04/29 01:17:55;;;;;;;9.27;5.50;;;;;;;13.49;82.85;100295.47;4158322;28;20044;-60
2023/04/29 01:20:00;;;;;;;6.07;5.05;;;;;;;13.49;82.93;100302.41;4158847;28;20546;-60
2023/04/29 01:22:04;;;;;;;8.57;6.60;;;;;;;13.47;82.91;100304.16;4160804;28;20045;-60
2023/04/29 01:24:09;;;;;;;10.85;6.80;;;;;;;13.48;83.07;100308.50;4136888;28;20479;-60
2023/04/29 01:26:13;;;;;;;9.38;6.15;;;;;;;13.47;83.27;100305.03;4156277;28;20030;-60
2023/04/29 01:28:46;;;;;;;8.48;7.10;;;;;;;13.48;83.20;100306.78;4163103;28;20048;-59
2023/04/29 01:31:00;;;;;;;9.02;6.57;;;;;;;13.48;83.15;100308.50;4157681;28;20040;-60
2023/04/29 01:33:11;;;;;;;6.88;4.65;;;;;;;13.49;83.70;100295.47;4161136;28;20495;-59
2023/04/29 01:35:27;;;;;;;6.85;5.47;;;;;;;13.47;83.24;100299.81;4161637;28;20033;-59
2023/04/29 01:37:38;;;;;;;9.80;6.65;;;;;;;13.43;83.32;100306.78;4161589;28;20034;-60
2023/04/29 01:39:52;;;;;;;8.63;6.88;;;;;;;13.45;83.65;100306.78;4158359;28;20033;-59
2023/04/29 01:41:58;;;;;;;10.63;7.18;;;;;;;13.49;83.89;100312.84;4160389;28;20044;-60
2023/04/29 01:44:07;;;;;;;5.60;4.60;;;;;;;13.50;83.54;100307.63;4160227;28;20033;-60
2023/04/29 01:46:11;;;;;;;9.75;6.40;;;;;;;13.54;83.20;100309.38;4161243;28;20035;-60
2023/04/29 01:48:14;;;;;;;7.63;5.63;;;;;;;13.54;83.19;100312.00;4161868;28;20037;-59
2023/04/29 01:50:18;;;;;;;7.00;5.18;;;;;;;13.54;83.47;100312.00;4161138;28;20037;-59
2023/04/29 01:52:22;;;;;;;8.80;4.95;;;;;;;13.58;82.99;100315.44;4161068;28;20044;-60
2023/04/29 01:54:35;;;;;;;8.02;6.55;;;;;;;13.59;83.48;100310.25;4160321;28;20084;-60
2023/04/29 01:56:39;;;;;;;8.98;6.78;;;;;;;13.59;83.38;100311.97;4162405;28;20051;-60
2023/04/29 01:58:50;;;;;;;6.65;5.57;;;;;;;13.60;84.14;100311.97;4154725;28;20049;-60
2023/04/29 02:01:13;;;;;;;7.28;6.18;;;;;;;13.61;83.82;100315.47;4162382;28;20112;-59
2023/04/29 02:03:16;;;;;;;6.88;4.68;;;;;;;13.61;84.21;100313.72;4160893;28;20091;-60
2023/04/29 02:05:22;;;;;;;7.32;5.88;;;;;;;13.64;83.52;100304.13;4161488;28;20140;-60
2023/04/29 02:07:31;;;;;;;11.05;5.60;;;;;;;13.65;83.50;100308.50;4142760;28;20042;-60
2023/04/29 02:09:34;;;;;;;5.55;4.57;;;;;;;13.64;83.72;100309.34;4160816;28;20048;-60
2023/04/29 02:11:44;;;;;;;6.72;4.43;;;;;;;13.64;83.66;100320.69;4146696;28;20076;-59
2023/04/29 02:13:47;;;;;;;6.82;5.38;;;;;;;13.61;84.08;100321.56;4160912;28;20048;-59
2023/04/29 02:15:50;;;;;;;9.85;4.45;;;;;;;13.58;83.22;100320.69;4145020;28;20044;-59
2023/04/29 02:17:54;;;;;;;5.15;3.92;;;;;;;13.59;83.30;100322.44;4156527;28;20515;-59
2023/04/29 02:19:56;;;;;;;6.07;3.90;;;;;;;13.62;83.37;100325.03;4161145;28;20271;-60
2023/04/29 02:21:59;;;;;;;6.80;4.10;;;;;;;13.61;82.76;100332.00;4161284;28;20037;-60
2023/04/29 02:24:02;;;;;;;5.80;3.60;;;;;;;13.65;83.19;100334.63;4160643;28;20033;-60
2023/04/29 02:26:05;;;;;;;9.30;3.90;;;;;;;13.65;82.99;100327.66;4162465;28;20534;-59
2023/04/29 02:28:09;;;;;;;5.82;3.83;;;;;;;13.68;82.85;100337.22;4160904;28;20121;-60
2023/04/29 02:30:15;;;;;;;5.57;4.00;;;;;;;13.68;82.57;100335.50;4157476;28;20092;-59
2023/04/29 02:32:19;;;;;;;6.75;4.45;;;;;;;13.69;82.66;100338.97;4157940;28;20046;-59
2023/04/29 02:34:22;;;;;;;7.17;4.63;;;;;;;13.67;83.04;100335.47;4161266;28;20487;-60
2023/04/29 02:36:25;;;;;;;6.70;4.90;;;;;;;13.66;82.56;100338.97;4162094;28;20316;-59
2023/04/29 02:38:28;;;;;;;7.40;5.97;;;;;;;13.65;82.70;100345.06;4164232;28;20153;-59
2023/04/29 02:40:31;;;;;;;6.10;5.00;;;;;;;13.64;83.05;100343.31;4164238;28;20029;-59
2023/04/29 02:42:34;;;;;;;7.60;5.18;;;;;;;13.63;82.53;100339.84;4163945;28;20080;-59
2023/04/29 02:44:39;;;;;;;7.60;4.05;;;;;;;13.61;83.16;100342.47;4164202;28;20498;-59
2023/04/29 02:46:44;;;;;;;7.63;4.93;;;;;;;13.60;82.86;100345.06;4158819;28;20473;-59
2023/04/29 02:48:47;;;;;;;8.10;4.18;;;;;;;13.59;83.01;100341.59;4165302;28;20099;-59
2023/04/29 02:50:51;;;;;;;6.97;4.80;;;;;;;13.56;82.58;100344.19;4164370;28;20518;-59
2023/04/29 02:52:53;;;;;;;10.27;4.95;;;;;;;13.55;82.96;100352.03;4157801;28;20117;-60
2023/04/29 02:54:59;;;;;;;6.22;4.93;;;;;;;13.49;82.76;100355.53;4148712;28;20049;-60
2023/04/29 02:57:02;;;;;;;6.30;5.00;;;;;;;13.46;82.40;100346.81;4164270;28;20045;-60
2023/04/29 02:59:05;;;;;;;7.97;4.97;;;;;;;13.43;82.63;100353.78;4165122;28;20036;-60
2023/04/29 03:01:09;;;;;;;4.97;3.70;;;;;;;13.38;82.89;100350.28;4164254;28;20033;-59
2023/04/29 03:03:13;;;;;;;3.40;2.80;;;;;;;13.31;82.99;100353.72;4164630;28;20038;-59
2023/04/29 03:05:19;;;;;;;4.57;2.92;;;;;;;13.28;83.13;100349.34;4164187;28;20491;-59
2023/04/29 03:07:22;;;;;;;5.65;2.88;;;;;;;13.21;83.22;100344.13;4164058;28;20133;-60
2023/04/29 03:09:25;;;;;;;5.40;2.30;;;;;;;13.21;82.68;100341.53;4145365;28;20049;-60
2023/04/29 03:11:28;;;;;;;8.63;2.50;;;;;;;13.16;82.75;100340.66;4169255;28;20124;-59
2023/04/29 03:13:30;;;;;;;3.70;2.15;;;;;;;13.15;82.19;100342.38;4167263;28;20129;-60
2023/04/29 03:15:33;;;;;;;4.45;2.30;;;;;;;13.12;82.78;100351.97;4148138;28;20097;-58
2023/04/29 03:17:37;;;;;;;4.13;2.30;;;;;;;13.08;82.69;100351.06;4163805;28;20095;-59
2023/04/29 03:19:41;;;;;;;3.38;2.00;;;;;;;13.02;82.84;100357.13;4159130;28;20419;-59
2023/04/29 03:21:44;;;;;;;2.85;2.33;;;;;;;13.04;82.02;100358.03;4154973;28;20038;-59
2023/04/29 03:23:48;;;;;;;3.05;2.22;;;;;;;13.07;81.98;100351.97;4146736;28;20153;-58
2023/04/29 03:25:58;;;;;;;4.65;2.60;;;;;;;13.09;81.53;100347.59;4161452;28;20037;-59
2023/04/29 03:28:01;;;;;;;6.07;2.30;;;;;;;13.08;81.69;100353.69;4147345;28;20046;-59
2023/04/29 03:30:06;;;;;;;4.55;2.70;;;;;;;13.05;81.63;100356.28;4155670;28;20120;-59
2023/04/29 03:32:11;;;;;;;4.95;2.30;;;;;;;13.01;81.48;100355.41;4163144;28;20060;-58
2023/04/29 03:34:15;;;;;;;6.13;2.80;;;;;;;13.01;81.46;100364.97;4163764;28;20041;-59
2023/04/29 03:36:24;;;;;;;2.92;2.25;;;;;;;12.99;81.24;100362.34;4166333;28;20053;-58
2023/04/29 03:38:40;;;;;;;2.65;2.10;;;;;;;12.98;81.22;100360.63;4167450;28;20491;-58
2023/04/29 03:40:44;;;;;;;3.28;2.55;;;;;;;13.01;81.42;100359.75;4171571;28;20124;-58
2023/04/29 03:42:47;;;;;;;3.72;2.13;;;;;;;13.01;81.65;100363.25;4163232;28;20042;-59
2023/04/29 03:44:50;;;;;;;3.10;2.15;;;;;;;13.02;81.56;100359.75;4164052;28;20080;-59
2023/04/29 03:46:53;;;;;;;3.00;1.98;;;;;;;13.03;81.76;100358.03;4162730;28;20419;-58
2023/04/29 03:48:57;;;;;;;3.58;2.03;;;;;;;12.99;81.80;100370.19;4163440;28;20553;-58
2023/04/29 03:51:02;;;;;;;3.22;1.83;;;;;;;12.98;82.07;100370.19;4159559;28;20064;-59
2023/04/29 03:53:05;;;;;;;2.35;1.80;;;;;;;12.85;80.78;100375.38;4162910;28;20036;-58
2023/04/29 03:55:09;;;;;;;4.13;1.55;;;;;;;12.88;81.34;100367.56;4163459;28;20037;-59
2023/04/29 03:57:12;;;;;;;2.15;1.42;;;;;;;12.88;81.18;100372.78;4159311;28;20128;-60
2023/04/29 03:59:15;;;;;;;3.22;1.60;;;;;;;12.90;80.82;100383.22;4162686;28;20594;-61
2023/04/29 04:01:18;;;;;;;1.60;1.50;;;;;;;12.92;80.60;100371.03;4170244;28;20577;-60
2023/04/29 04:03:22;;;;;;;1.80;1.48;;;;;;;12.94;80.80;100384.97;4146215;28;20050;-60
2023/04/29 04:05:25;;;;;;;1.65;1.30;;;;;;;12.96;80.25;100384.97;4163317;28;20041;-61
2023/04/29 04:07:35;;;;;;;2.03;1.30;;;;;;;12.99;80.16;100392.81;4161446;28;20037;-61
2023/04/29 04:10:01;;;;;;;2.85;1.50;;;;;;;12.97;80.21;100390.19;4159445;28;20504;-58
2023/04/29 04:12:06;;;;;;;2.35;1.85;;;;;;;13.00;80.51;100394.56;4159740;28;20080;-59
2023/04/29 04:14:09;;;;;;;2.30;1.42;;;;;;;13.01;80.76;100386.75;4163143;28;20446;-59
2023/04/29 04:16:12;;;;;;;3.40;1.80;;;;;;;13.02;80.88;100393.69;4162915;28;20061;-59
2023/04/29 04:18:16;;;;;;;1.52;1.38;;;;;;;13.02;80.91;100395.44;4163008;28;20041;-59
2023/04/29 04:20:19;;;;;;;4.03;2.10;;;;;;;13.00;80.94;100395.41;4162713;28;20044;-58
2023/04/29 04:22:24;;;;;;;;;;;;;;;12.91;80.48;100395.41;4161944;28;20044;-59
2023/04/29 04:24:45;;;;;;;2.92;1.90;;;;;;;12.92;81.33;100398.00;4146565;28;19921;-59
2023/04/29 04:26:48;;;;;;;2.10;1.90;;;;;;;12.97;81.79;100407.59;4179318;28;20120;-58
2023/04/29 04:28:56;;;;;;;7.50;2.20;;;;;;;12.98;81.22;100411.94;4163021;28;20076;-58
2023/04/29 04:31:19;;;;;;;3.08;1.77;;;;;;;12.96;81.55;100398.88;4143098;28;20061;-58
2023/04/29 04:33:22;;;;;;;3.90;2.10;;;;;;;13.00;81.49;100407.63;4154565;28;20068;-59
2023/04/29 04:35:25;;;;;;;5.60;2.33;;;;;;;13.01;81.89;100414.56;4179741;28;20055;-59
2023/04/29 04:37:28;;;;;;;3.05;1.65;;;;;;;13.03;81.71;100411.09;4163524;28;20046;-59
2023/04/29 04:39:34;;;;;;;2.10;1.90;;;;;;;13.04;81.65;100417.16;4162413;28;20073;-58
2023/04/29 04:41:38;;;;;;;2.50;1.83;;;;;;;13.03;81.58;100416.31;4146295;28;20072;-59
2023/04/29 04:43:41;;;;;;;3.03;1.70;;;;;;;13.01;81.56;100422.38;4161910;28;20493;-59
2023/04/29 04:45:51;;;;;;;1.95;1.55;;;;;;;13.02;81.89;100418.91;4175522;28;20056;-58
2023/04/29 04:47:54;;;;;;;4.50;1.95;;;;;;;13.03;82.12;100421.53;4162598;28;20080;-59
2023/04/29 04:50:02;;;;;;;2.13;1.70;;;;;;;13.05;81.81;100422.41;4162641;28;20041;-59
2023/04/29 04:52:05;;;;;;;1.52;1.30;;;;;;;13.07;81.70;100422.44;4145809;28;20037;-58
2023/04/29 04:54:08;;;;;;;1.80;1.58;;;;;;;13.05;81.82;100424.13;4154858;28;20101;-59
2023/04/29 04:56:11;;;;;;;3.35;1.48;;;;;;;13.07;81.19;100425.91;4159182;28;20037;-58
2023/04/29 04:58:15;;;;;;;2.78;1.90;;;;;;;13.11;80.13;100434.59;4162330;28;20459;-58
2023/04/29 05:00:18;;;;;;;2.53;1.80;;;;;;;13.10;79.63;100443.31;4145480;28;20050;-58
2023/04/29 05:02:21;;;;;;;2.03;1.50;;;;;;;13.04;79.71;100438.94;4160403;28;20046;-59
2023/04/29 05:04:25;;;;;;;2.40;1.40;;;;;;;13.08;79.08;100447.63;4162435;28;20049;-59
2023/04/29 05:06:28;;;;;;;2.03;1.60;;;;;;;13.09;79.10;100445.03;4162588;28;20541;-59
2023/04/29 05:08:31;;;;;;;7.45;1.80;;;;;;;13.12;79.14;100457.22;4159524;22;20038;-71
2023/04/29 05:10:36;;;;;;;;;;;;;;;13.01;79.31;100451.09;4114847;28;20047;-71
2023/04/29 05:12:40;;;;;;;1.42;1.20;;;;;;;13.06;79.34;100462.44;4113504;28;19929;-72
2023/04/29 05:14:44;;;;;;;2.35;1.70;;;;;;;13.07;79.48;100465.03;4126895;28;20045;-72
2023/04/29 05:16:48;;;;;;;;;;;;;;;12.98;79.40;100472.84;4113948;28;20053;-72
2023/04/29 05:18:51;;;;;;;2.40;1.45;;;;;;;12.93;79.64;100467.56;4109755;28;19953;-71
2023/04/29 05:20:53;;;;;;;2.63;1.80;;;;;;;12.93;79.33;100471.94;4096771;29;20075;-71
2023/04/29 05:22:56;;;;;;;2.83;1.73;;;;;;;12.97;79.90;100475.44;4096989;29;20047;-71
2023/04/29 05:25:02;;;;;;;2.57;1.87;;;;;;;12.97;79.94;100472.84;4085096;29;20050;-71
2023/04/29 05:27:06;;;;;;;1.55;1.42;;;;;;;12.97;79.74;100480.66;4120243;28;20293;-72
2023/04/29 05:29:09;;;;;;;3.78;1.73;;;;;;;12.95;79.41;100483.25;4094312;29;20039;-72
2023/04/29 05:31:23;;;;;;;4.40;1.67;;;;;;;12.97;79.53;100472.84;4129807;28;20043;-72
2023/04/29 05:33:26;;;;;;;2.90;2.20;;;;;;;12.98;79.93;100479.78;4080735;29;20051;-71
2023/04/29 05:35:29;;;;;;;3.50;2.00;;;;;;;12.96;80.07;100481.53;4084782;29;20054;-71
2023/04/29 05:37:33;;;;;;;3.45;2.30;;;;;;;12.97;80.45;100489.34;4122226;28;20030;-72
2023/04/29 05:39:50;;;;;;;2.47;2.25;;;;;;;12.95;80.18;100485.84;4128958;28;20319;-71
2023/04/29 05:41:53;;;;;;;3.13;2.17;;;;;;;12.98;79.92;100488.50;4126212;28;20042;-72
2023/04/29 05:44:06;;;;;;;2.85;1.88;;;;;;;13.00;79.09;100497.19;4128501;28;20403;-70
2023/04/29 05:46:09;;;;;;;3.28;2.08;;;;;;;13.06;79.55;100491.13;4122652;28;20043;-71
2023/04/29 05:48:15;;;;;;;3.05;2.00;;;;;;;13.10;79.44;100500.72;4128501;28;20439;-71
2023/04/29 05:50:19;;;;;;;2.47;2.10;;;;;;;13.14;79.68;100496.38;4096993;29;20146;-71
2023/04/29 05:52:21;;;;;;;2.92;2.22;;;;;;;13.18;78.67;100498.16;4126099;28;20481;-70
2023/04/29 05:54:25;;;;;;;5.90;2.90;;;;;;;13.25;78.86;100508.59;4127679;28;20042;-71
2023/04/29 05:56:28;;;;;;;4.80;2.50;;;;;;;13.27;79.47;100500.78;4091276;29;20047;-70
2023/04/29 05:58:31;;;;;;;6.07;2.15;;;;;;;13.28;79.37;100506.00;4126040;28;20049;-70
2023/04/29 06:00:34;;;;;;;3.65;2.53;;;;;;;13.33;79.51;100513.00;4123963;28;20042;-70
2023/04/29 06:02:44;;;;;;;6.50;2.80;;;;;;;13.36;79.97;100518.25;4089263;29;20126;-71
2023/04/29 06:05:01;;;;;;;5.43;2.80;;;;;;;13.42;79.99;100515.69;4094606;29;20581;-70
2023/04/29 06:07:15;;;;;;;2.58;2.10;;;;;;;13.42;78.87;100518.31;4096916;29;20039;-71
2023/04/29 06:09:29;;;;;;;3.35;1.90;;;;;;;13.41;78.67;100521.78;4110006;28;20126;-71
2023/04/29 06:11:36;;;;;;;2.35;1.92;;;;;;;13.48;77.84;100518.31;4119009;28;20042;-70
2023/04/29 06:13:39;;;;;;;5.75;1.83;;;;;;;13.50;77.00;100528.75;4127250;28;20042;-71
2023/04/29 06:15:41;;;;;;;4.82;2.40;;;;;;;13.49;76.70;100527.91;4120970;28;20669;-70
2023/04/29 06:17:44;;;;;;;3.45;2.70;;;;;;;13.64;75.06;100528.78;4128127;28;20041;-70
2023/04/29 06:19:47;;;;;;;4.90;2.75;;;;;;;13.55;74.52;100530.53;4121946;28;20097;-71
2023/04/29 06:21:51;;;;;;;2.42;2.13;;;;;;;13.48;75.10;100536.59;4121476;28;20042;-71
2023/04/29 06:23:55;;;;;;;4.07;2.33;;;;;;;13.44;75.68;100537.44;4128094;28;20041;-71
2023/04/29 06:25:57;;;;;;;4.93;2.63;;;;;;;13.47;76.30;100539.22;4105578;28;20557;-71
2023/04/29 06:28:00;;;;;;;5.13;3.25;;;;;;;13.54;75.50;100540.97;4092275;29;20521;-71
2023/04/29 06:30:06;;;;;;;5.35;3.97;;;;;;;13.50;75.56;100539.22;4122973;28;20435;-71
2023/04/29 06:32:09;;;;;;;6.30;3.38;;;;;;;13.51;75.05;100552.28;4125312;28;20049;-71
2023/04/29 06:34:12;;;;;;;5.43;3.90;;;;;;;13.52;74.98;100545.28;4128186;28;20042;-71
2023/04/29 06:36:33;;;;;;;8.15;4.80;;;;;;;13.64;75.03;100554.91;4096751;29;20055;-71
2023/04/29 06:39:00;;;;;;;7.00;4.78;;;;;;;13.59;74.18;100552.28;4107643;28;20043;-72
2023/04/29 06:41:27;;;;;;;6.13;4.15;;;;;;;13.54;74.58;100559.25;4097060;29;20043;-71
2023/04/29 06:43:42;;;;;;;7.40;4.30;;;;;;;13.54;74.23;100560.13;4111753;28;20046;-72
2023/04/29 06:46:10;;;;;;;5.95;4.38;;;;;;;13.61;75.22;100561.03;4126962;28;20034;-71
2023/04/29 06:48:26;;;;;;;4.28;3.15;;;;;;;13.60;74.01;100569.72;4111898;28;20051;-71
2023/04/29 06:50:29;;;;;;;7.05;4.03;;;;;;;13.58;74.13;100574.03;4089003;28;20094;-71
2023/04/29 06:52:32;;;;;;;6.75;4.72;;;;;;;13.61;73.48;100569.72;4094451;29;20047;-71
2023/04/29 06:54:36;;;;;;;7.78;5.25;;;;;;;13.52;73.12;100569.69;4126220;28;20508;-71
2023/04/29 06:56:39;;;;;;;8.90;6.20;;;;;;;13.52;73.29;100582.75;4127607;28;20113;-71
2023/04/29 06:58:42;;;;;;;12.65;8.32;;;;;;;13.47;72.76;100578.38;4089513;29;20043;-71
2023/04/29 07:00:46;;;;;;;11.05;9.20;;;;;;;13.52;71.50;100580.16;4082973;29;20044;-71
2023/04/29 07:02:49;;;;;;;17.55;10.32;;;;;;;13.41;72.18;100582.69;4079496;29;20146;-71
2023/04/29 07:04:53;;;;;;;13.85;9.50;;;;;;;13.35;72.85;100587.03;4123946;28;20031;-71
2023/04/29 07:06:56;;;;;;;16.65;10.55;;;;;;;13.39;72.04;100584.44;4105106;28;20565;-71
2023/04/29 07:08:58;;;;;;;13.98;11.30;;;;;;;13.28;72.08;100589.56;4127634;28;20056;-71
2023/04/29 07:11:03;;;;;;;14.20;11.27;;;;;;;13.31;71.50;100593.94;4079683;29;20055;-71
2023/04/29 07:13:05;;;;;;;14.90;12.23;;;;;;;13.31;71.05;100598.28;4088113;29;20039;-71
2023/04/29 07:15:09;;;;;;;16.30;10.95;;;;;;;13.17;70.31;100591.25;4095284;29;20047;-71
2023/04/29 07:17:12;;;;;;;17.57;12.87;;;;;;;13.16;69.70;100602.56;4123847;28;20041;-71
2023/04/29 07:19:16;;;;;;;16.25;12.65;;;;;;;13.16;68.82;100599.09;4076983;29;20055;-71
2023/04/29 07:21:19;;;;;;;18.42;13.40;;;;;;;13.12;68.57;100612.97;4107591;28;20158;-71
2023/04/29 07:23:22;;;;;;;16.48;12.77;;;;;;;12.98;69.10;100612.88;4097764;29;20047;-71
2023/04/29 07:25:26;;;;;;;17.17;11.65;;;;;;;13.05;68.51;100623.38;4077938;29;20062;-71
2023/04/29 07:27:30;;;;;;;17.58;11.60;;;;;;;12.99;68.75;100619.84;4098861;29;20079;-71
2023/04/29 07:29:33;;;;;;;14.32;11.70;;;;;;;12.99;68.52;100619.84;4090181;29;20482;-71
2023/04/29 07:31:37;;;;;;;16.70;11.15;;;;;;;12.98;69.53;100634.66;4092813;29;20126;-71
2023/04/29 07:33:40;;;;;;;16.17;12.65;;;;;;;13.08;68.85;100627.72;4125327;28;20097;-71
2023/04/29 07:35:44;;;;;;;18.00;12.43;;;;;;;13.09;68.66;100630.34;4129157;28;20035;-71
2023/04/29 07:37:48;;;;;;;17.77;13.18;;;;;;;13.04;69.31;100636.41;4098628;29;20066;-71
2023/04/29 07:39:51;;;;;;;17.88;12.93;;;;;;;13.10;68.84;100637.31;4123958;28;20537;-71
2023/04/29 07:41:54;;;;;;;18.13;13.40;;;;;;;13.20;68.92;100637.38;4125469;28;20042;-71
2023/04/29 07:43:59;;;;;;;15.95;12.30;;;;;;;13.09;68.92;100639.94;4092243;29;20046;-71
2023/04/29 07:46:01;;;;;;;17.02;13.57;;;;;;;13.14;69.57;100646.06;4091871;29;20082;-71
2023/04/29 07:48:05;;;;;;;18.88;13.18;;;;;;;13.16;69.03;100644.31;4098818;29;20382;-71
2023/04/29 07:50:09;;;;;;;14.83;11.50;;;;;;;13.15;68.84;100646.94;4112721;28;20038;-71
2023/04/29 07:52:13;;;;;;;16.35;12.63;;;;;;;13.21;69.05;100642.59;4087936;28;20059;-71
2023/04/29 07:54:17;;;;;;;16.33;11.70;;;;;;;13.24;68.96;100647.88;4111148;28;20468;-71
2023/04/29 07:56:22;;;;;;;15.57;11.93;;;;;;;13.25;69.13;100652.19;4090048;29;20465;-72
2023/04/29 07:58:25;;;;;;;14.48;11.40;;;;;;;13.25;68.66;100657.44;4111872;28;20054;-72
2023/04/29 08:00:30;;;;;;;19.30;13.35;;;;;;;13.25;69.89;100667.88;4098861;29;20047;-71
2023/04/29 08:02:33;;;;;;;14.15;10.48;;;;;;;13.30;67.65;100665.28;4096361;29;20126;-71
2023/04/29 08:04:39;;;;;;;15.95;10.05;;;;;;;13.24;66.50;100667.84;4114887;28;20039;-71
2023/04/29 08:06:45;;;;;;;14.45;9.60;;;;;;;13.24;66.42;100676.59;4129627;28;20046;-71
2023/04/29 08:08:48;;;;;;;13.07;9.63;;;;;;;13.09;67.51;100668.63;4124884;28;20101;-70
2023/04/29 08:10:53;;;;;;;12.95;10.13;;;;;;;13.21;67.39;100671.31;4110309;28;20497;-71
2023/04/29 08:12:56;;;;;;;13.57;10.50;;;;;;;13.19;67.05;100672.19;4095313;28;20035;-71
2023/04/29 08:14:59;;;;;;;13.75;9.65;;;;;;;13.20;66.52;100674.81;4096202;28;20040;-71
2023/04/29 08:17:03;;;;;;;12.20;8.32;;;;;;;13.09;67.18;100676.47;4111409;28;20166;-71
2023/04/29 08:19:06;;;;;;;13.57;9.20;;;;;;;13.12;66.89;100678.22;4100691;28;20057;-71
2023/04/29 08:21:10;;;;;;;12.80;9.52;;;;;;;13.31;66.17;100679.22;4129013;28;20492;-71
2023/04/29 08:23:15;;;;;;;11.43;7.57;;;;;;;13.15;66.97;100679.13;4124371;28;20125;-71
2023/04/29 08:25:18;;;;;;;12.18;9.27;;;;;;;13.32;66.62;100687.06;4130829;28;20073;-72
2023/04/29 08:27:21;;;;;;;12.57;7.75;;;;;;;13.30;65.41;100682.69;4095549;28;20049;-72
2023/04/29 08:29:24;;;;;;;10.27;8.10;;;;;;;13.29;64.72;100681.84;4097789;28;20039;-72
2023/04/29 08:31:27;;;;;;;10.27;8.02;;;;;;;13.37;64.87;100692.34;4087005;28;20581;-72
2023/04/29 08:33:31;;;;;;;10.18;7.60;;;;;;;13.17;65.93;100687.84;4093118;28;20062;-72
2023/04/29 08:35:36;;;;;;;11.98;8.90;;;;;;;13.17;66.14;100684.34;4091274;29;20754;-72
2023/04/29 08:37:39;;;;;;;11.68;8.73;;;;;;;13.24;65.66;100692.25;4094324;29;20501;-70
2023/04/29 08:39:42;;;;;;;11.50;8.30;;;;;;;13.24;65.88;100687.03;4097588;29;20051;-72
2023/04/29 08:41:50;;;;;;;12.38;8.43;;;;;;;13.32;65.79;100688.81;4092437;28;20095;-73
2023/04/29 08:43:53;;;;;;;10.48;7.28;;;;;;;13.30;65.95;100693.13;4093266;29;20052;-72
2023/04/29 08:45:58;;;;;;;9.30;7.07;;;;;;;13.29;66.12;100694.88;4089499;28;20100;-71
2023/04/29 08:48:03;;;;;;;11.50;8.05;;;;;;;13.25;66.28;100687.91;4092734;28;20038;-71
2023/04/29 08:50:09;;;;;;;10.90;8.20;;;;;;;13.27;66.18;100697.50;4096488;28;20446;-72
2023/04/29 08:52:12;;;;;;;11.32;8.32;;;;;;;13.34;66.32;100697.53;4128812;28;20069;-74
2023/04/29 08:54:15;;;;;;;11.75;8.65;;;;;;;13.32;66.56;100699.25;4129382;28;20042;-71
2023/04/29 08:56:20;;;;;;;12.55;9.15;;;;;;;13.38;66.46;100700.19;4091359;29;20506;-71
2023/04/29 08:58:25;;;;;;;12.15;9.45;;;;;;;13.47;65.62;100699.38;4095384;29;20047;-72
2023/04/29 09:00:28;;;;;;;;;;;;;;;13.28;66.45;100699.22;4092599;29;20042;-72
2023/04/29 09:02:31;;;;;;;11.52;8.98;;;;;;;13.26;66.87;100708.78;4091786;29;20015;-71
2023/04/29 09:04:46;;;;;;;10.88;8.80;;;;;;;13.31;66.52;100707.94;4091219;28;20036;-71
2023/04/29 09:06:51;;;;;;;9.98;7.10;;;;;;;13.31;67.17;100707.94;4085474;29;20490;-72
2023/04/29 09:09:05;;;;;;;;;;;;;;;13.25;68.10;100709.66;4094295;29;20119;-72
2023/04/29 09:11:10;;;;;;;12.50;9.02;;;;;;;13.36;66.86;100716.72;4091433;29;19926;-72
2023/04/29 09:13:24;;;;;;;12.35;9.05;;;;;;;13.35;66.18;100718.47;4093256;28;20457;-72
2023/04/29 09:15:27;;;;;;;11.35;8.32;;;;;;;13.36;66.31;100721.94;4095703;28;20051;-71
2023/04/29 09:17:44;;;;;;;10.68;7.45;;;;;;;13.34;66.77;100724.53;4092064;29;20502;-71
2023/04/29 09:19:47;;;;;;;13.20;8.57;;;;;;;13.41;66.80;100726.31;4128380;28;20088;-72
2023/04/29 09:21:55;;;;;;;11.35;8.70;;;;;;;13.47;67.22;100722.88;4090576;28;20040;-71
2023/04/29 09:24:00;;;;;;;13.65;9.77;;;;;;;13.49;66.32;100723.78;4091959;28;20057;-71
2023/04/29 09:26:03;;;;;;;11.98;8.85;;;;;;;13.51;66.71;100732.50;4093302;29;20035;-71
2023/04/29 09:28:16;;;;;;;12.52;8.93;;;;;;;13.75;63.74;100728.28;4128784;28;20053;-72
2023/04/29 09:30:19;;;;;;;12.75;8.23;;;;;;;13.59;64.82;100736.03;4088651;29;20130;-72
2023/04/29 09:32:23;;;;;;;10.00;7.07;;;;;;;13.61;63.73;100729.06;4125962;28;20047;-72
2023/04/29 09:34:31;;;;;;;11.10;8.25;;;;;;;13.71;63.41;100730.00;4097096;29;20418;-72
2023/04/29 09:36:39;;;;;;;10.27;7.40;;;;;;;13.68;64.27;100726.50;4088935;29;20070;-71
2023/04/29 09:38:55;;;;;;;11.20;8.38;;;;;;;13.65;65.01;100737.78;4096803;29;20505;-72
2023/04/29 09:40:58;;;;;;;10.65;7.97;;;;;;;13.68;63.74;100729.09;4089950;28;20043;-72